createdAt,value
2023-10-10T00:00:50.453Z,9.98
2023-10-10T00:03:19.627Z,10.40
2023-10-10T00:05:46.269Z,10.07
2023-10-10T00:08:12.821Z,10.07
2023-10-10T00:10:51.698Z,7.50
2023-10-10T00:13:19.111Z,8.95
2023-10-10T00:15:52.415Z,8.02
2023-10-10T00:18:20.694Z,8.63
2023-10-10T00:21:05.825Z,9.55
2023-10-10T00:23:39.516Z,9.77
2023-10-10T00:28:35.690Z,9.93
2023-10-10T00:31:09.454Z,9.40
2023-10-10T00:33:39.498Z,9.45
2023-10-10T00:36:12.036Z,10.77
2023-10-10T00:38:38.648Z,10.57
2023-10-10T00:41:12.185Z,10.95
2023-10-10T00:43:38.761Z,10.32
2023-10-10T00:46:09.088Z,11.50
2023-10-10T00:48:39.378Z,13.85
2023-10-10T00:51:11.852Z,13.18
2023-10-10T00:53:43.307Z,9.52
2023-10-10T00:56:10.213Z,13.02
2023-10-10T00:58:37.886Z,10.57
2023-10-10T01:01:10.881Z,9.68
2023-10-10T01:03:41.568Z,11.40
2023-10-10T01:06:27.800Z,15.93
2023-10-10T01:09:00.883Z,15.88
2023-10-10T01:11:27.577Z,11.52
2023-10-10T01:13:54.133Z,12.57
2023-10-10T01:16:25.972Z,8.85
2023-10-10T01:18:55.415Z,9.20
2023-10-10T01:21:32.158Z,9.52
2023-10-10T01:24:07.545Z,9.88
2023-10-10T01:26:38.385Z,8.93
2023-10-10T01:29:35.206Z,9.95
2023-10-10T01:32:03.782Z,7.75
2023-10-10T01:34:34.200Z,9.32
2023-10-10T01:37:08.810Z,7.93
2023-10-10T01:39:54.799Z,7.72
2023-10-10T01:42:32.778Z,8.90
2023-10-10T01:45:09.305Z,10.27
2023-10-10T01:47:40.826Z,8.98
2023-10-10T01:50:16.914Z,10.20
2023-10-10T01:52:47.645Z,7.55
2023-10-10T01:55:17.721Z,8.10
2023-10-10T01:57:44.534Z,11.20
2023-10-10T02:00:28.321Z,8.13
2023-10-10T02:02:56.946Z,8.30
2023-10-10T02:05:46.525Z,7.03
2023-10-10T02:08:18.158Z,9.23
2023-10-10T02:10:48.835Z,9.48
2023-10-10T02:13:15.904Z,11.52
2023-10-10T02:15:43.254Z,9.40
2023-10-10T02:18:32.920Z,12.73
2023-10-10T02:21:07.257Z,10.90
2023-10-10T02:23:34.099Z,10.15
2023-10-10T02:26:15.610Z,9.27
2023-10-10T02:28:49.384Z,10.15
2023-10-10T02:31:17.572Z,8.48
2023-10-10T02:33:49.774Z,8.88
2023-10-10T02:36:17.852Z,11.60
2023-10-10T02:38:56.941Z,8.88
2023-10-10T02:41:39.289Z,8.93
2023-10-10T02:44:10.905Z,10.52
2023-10-10T02:46:43.699Z,7.13
2023-10-10T02:49:24.660Z,9.43
2023-10-10T02:51:56.438Z,9.55
2023-10-10T02:54:28.100Z,8.88
2023-10-10T02:57:26.536Z,10.63
2023-10-10T03:00:00.496Z,13.13
2023-10-10T03:02:31.605Z,8.45
2023-10-10T03:04:59.921Z,9.05
2023-10-10T03:07:30.446Z,8.45
2023-10-10T03:10:05.064Z,9.60
2023-10-10T03:12:32.827Z,10.25
2023-10-10T03:15:29.394Z,11.63
2023-10-10T03:17:56.474Z,8.52
2023-10-10T03:20:45.586Z,8.55
2023-10-10T03:23:12.163Z,8.52
2023-10-10T03:25:48.007Z,10.90
2023-10-10T03:28:29.931Z,9.20
2023-10-10T03:31:24.694Z,7.15
2023-10-10T03:34:17.953Z,9.52
2023-10-10T03:37:04.246Z,8.90
2023-10-10T03:39:45.812Z,11.02
2023-10-10T03:42:30.925Z,6.70
2023-10-10T03:45:15.990Z,6.95
2023-10-10T03:48:00.797Z,7.78
2023-10-10T03:50:46.003Z,6.40
2023-10-10T03:53:30.813Z,10.93
2023-10-10T03:56:15.793Z,7.38
2023-10-10T03:59:00.828Z,6.80
2023-10-10T04:01:46.065Z,8.90
2023-10-10T04:04:32.909Z,9.70
2023-10-10T04:07:17.692Z,9.27
2023-10-10T04:10:02.593Z,8.68
2023-10-10T04:12:47.502Z,8.90
2023-10-10T04:15:33.066Z,7.50
2023-10-10T04:18:18.276Z,7.72
2023-10-10T04:21:03.126Z,9.02
2023-10-10T04:23:48.107Z,7.45
2023-10-10T04:26:32.966Z,8.63
2023-10-10T04:29:18.041Z,10.23
2023-10-10T04:32:03.033Z,8.27
2023-10-10T04:34:48.258Z,10.23
2023-10-10T04:37:46.977Z,10.52
2023-10-10T04:40:32.392Z,9.63
2023-10-10T04:43:17.155Z,11.07
2023-10-10T04:46:01.998Z,6.65
2023-10-10T04:48:47.171Z,7.07
2023-10-10T04:51:31.961Z,6.78
2023-10-10T04:54:17.146Z,10.75
2023-10-10T04:57:02.486Z,7.25
2023-10-10T04:59:47.861Z,6.70
2023-10-10T05:02:32.787Z,7.70
2023-10-10T05:05:17.997Z,11.18
2023-10-10T05:08:03.163Z,6.68
2023-10-10T05:10:48.393Z,8.23
2023-10-10T05:13:33.261Z,7.95
2023-10-10T05:16:22.841Z,8.20
2023-10-10T05:19:12.224Z,7.75
2023-10-10T05:21:57.110Z,9.48
2023-10-10T05:24:25.792Z,13.65
2023-10-10T05:26:55.699Z,6.30
2023-10-10T05:29:22.394Z,7.65
2023-10-10T05:31:52.205Z,8.77
2023-10-10T05:34:21.739Z,7.63
2023-10-10T05:36:49.225Z,8.45
2023-10-10T05:39:19.170Z,11.02
2023-10-10T05:41:45.970Z,9.70
2023-10-10T05:44:14.925Z,7.25
2023-10-10T05:46:41.828Z,6.63
2023-10-10T05:49:08.301Z,7.70
2023-10-10T05:51:34.802Z,8.85
2023-10-10T05:54:01.319Z,8.13
2023-10-10T05:56:31.115Z,7.32
2023-10-10T05:58:57.974Z,9.40
2023-10-10T06:01:25.039Z,7.07
2023-10-10T06:03:52.617Z,9.60
2023-10-10T06:06:19.598Z,11.00
2023-10-10T06:08:46.665Z,10.35
2023-10-10T06:11:16.910Z,10.55
2023-10-10T06:13:46.859Z,9.63
2023-10-10T06:16:16.127Z,9.73
2023-10-10T06:18:45.792Z,9.13
2023-10-10T06:21:12.828Z,9.40
2023-10-10T06:23:43.164Z,11.32
2023-10-10T06:26:10.249Z,11.60
2023-10-10T06:28:37.351Z,9.20
2023-10-10T06:31:11.619Z,8.63
2023-10-10T06:33:42.531Z,13.85
2023-10-10T06:36:33.772Z,8.68
2023-10-10T06:39:19.312Z,14.32
2023-10-10T06:41:48.727Z,9.75
2023-10-10T06:44:16.421Z,11.27
2023-10-10T06:46:49.202Z,8.63
2023-10-10T06:49:16.555Z,9.20
2023-10-10T06:51:43.228Z,11.07
2023-10-10T06:54:20.818Z,10.57
2023-10-10T06:57:00.302Z,10.05
2023-10-10T06:59:30.672Z,10.02
2023-10-10T07:02:01.480Z,13.75
2023-10-10T07:04:28.745Z,11.88
2023-10-10T07:07:01.555Z,11.65
2023-10-10T07:09:29.830Z,11.93
2023-10-10T07:14:27.376Z,11.93
2023-10-10T07:16:58.002Z,13.70
2023-10-10T07:19:31.472Z,10.98
2023-10-10T07:22:01.199Z,15.90
2023-10-10T07:24:44.035Z,14.32
2023-10-10T07:27:13.923Z,12.95
2023-10-10T07:29:46.365Z,16.05
2023-10-10T07:32:19.069Z,14.23
2023-10-10T07:34:52.832Z,14.02
2023-10-10T07:40:05.277Z,12.88
2023-10-10T07:42:32.382Z,16.00
2023-10-10T07:44:59.621Z,13.88
2023-10-10T07:47:27.985Z,12.50
2023-10-10T07:49:55.464Z,12.57
2023-10-10T07:52:22.613Z,13.13
2023-10-10T07:54:54.788Z,11.85
2023-10-10T07:57:27.544Z,10.85
2023-10-10T07:59:56.726Z,12.60
2023-10-10T08:02:26.945Z,13.57
2023-10-10T08:04:54.939Z,15.35
2023-10-10T08:07:23.990Z,16.30
2023-10-10T08:09:50.908Z,15.60
2023-10-10T08:12:17.573Z,12.70
2023-10-10T08:14:44.645Z,11.35
2023-10-10T08:17:20.134Z,16.90
2023-10-10T08:19:52.753Z,12.55
2023-10-10T08:22:21.010Z,13.52
2023-10-10T08:24:47.537Z,14.23
2023-10-10T08:27:14.203Z,16.38
2023-10-10T08:29:41.698Z,16.13
2023-10-10T08:34:44.079Z,19.88
2023-10-10T08:37:11.124Z,16.13
2023-10-10T08:39:40.282Z,21.13
2023-10-10T08:42:12.210Z,20.33
2023-10-10T08:44:40.958Z,20.80
2023-10-10T08:47:09.250Z,20.83
2023-10-10T08:49:36.732Z,20.20
2023-10-10T08:52:04.853Z,18.50
2023-10-10T08:54:33.676Z,17.92
2023-10-10T08:57:01.380Z,19.30
2023-10-10T08:59:32.601Z,19.13
2023-10-10T09:02:10.125Z,18.48
2023-10-10T09:04:36.743Z,19.80
2023-10-10T09:07:09.636Z,18.42
2023-10-10T09:09:36.526Z,16.30
2023-10-10T09:12:04.636Z,19.13
2023-10-10T09:14:42.493Z,17.80
2023-10-10T09:17:10.798Z,14.35
2023-10-10T09:19:42.265Z,16.73
2023-10-10T09:22:13.645Z,17.42
2023-10-10T09:24:42.516Z,16.58
2023-10-10T09:27:29.665Z,17.58
2023-10-10T09:29:57.447Z,14.77
2023-10-10T09:32:43.999Z,16.35
2023-10-10T09:35:10.831Z,17.15
2023-10-10T09:37:42.552Z,22.88
2023-10-10T09:40:17.105Z,15.60
2023-10-10T09:42:59.729Z,15.02
2023-10-10T09:45:37.202Z,17.42
2023-10-10T09:48:29.251Z,18.67
2023-10-10T09:51:18.464Z,19.98
2023-10-10T09:53:48.749Z,19.02
2023-10-10T09:56:16.854Z,15.80
2023-10-10T09:58:45.778Z,16.17
2023-10-10T10:01:24.999Z,19.38
2023-10-10T10:04:04.834Z,13.80
2023-10-10T10:09:48.048Z,15.20
2023-10-10T10:12:32.864Z,14.25
2023-10-10T10:15:21.553Z,12.50
2023-10-10T10:18:15.268Z,16.70
2023-10-10T10:20:48.055Z,12.80
2023-10-10T10:23:19.420Z,16.55
2023-10-10T10:26:12.270Z,12.57
2023-10-10T10:28:42.974Z,14.40
2023-10-10T10:31:29.229Z,15.00
2023-10-10T10:34:06.898Z,14.32
2023-10-10T10:36:55.427Z,16.48
2023-10-10T10:39:28.400Z,14.40
2023-10-10T10:41:57.706Z,13.65
2023-10-10T10:44:47.691Z,15.70
2023-10-10T10:47:39.409Z,15.35
2023-10-10T10:50:18.704Z,11.88
2023-10-10T10:52:57.964Z,17.73
2023-10-10T10:55:30.487Z,19.52
2023-10-10T10:58:07.509Z,15.25
2023-10-10T11:01:00.157Z,17.73
2023-10-10T11:03:34.801Z,13.32
2023-10-10T11:06:02.253Z,18.00
2023-10-10T11:08:57.164Z,17.85
2023-10-10T11:11:33.211Z,15.27
2023-10-10T11:14:27.230Z,16.75
2023-10-10T11:16:59.540Z,16.60
2023-10-10T11:19:30.530Z,13.30
2023-10-10T11:22:02.327Z,19.90
2023-10-10T11:24:32.826Z,14.90
2023-10-10T11:27:08.337Z,16.88
2023-10-10T11:30:01.141Z,16.92
2023-10-10T11:32:37.901Z,15.68
2023-10-10T11:35:34.074Z,16.08
2023-10-10T11:38:00.907Z,16.45
2023-10-10T11:40:31.707Z,19.38
2023-10-10T11:43:00.562Z,19.15
2023-10-10T11:45:28.022Z,21.23
2023-10-10T11:48:06.676Z,21.70
2023-10-10T11:50:48.257Z,15.95
2023-10-10T11:53:28.933Z,21.38
2023-10-10T11:55:56.565Z,16.30
2023-10-10T11:58:36.928Z,14.93
2023-10-10T12:01:07.089Z,21.17
2023-10-10T12:03:41.515Z,18.40
2023-10-10T12:06:18.660Z,20.70
2023-10-10T12:08:48.209Z,18.65
2023-10-10T12:11:21.203Z,22.05
2023-10-10T12:13:49.640Z,20.23
2023-10-10T12:16:18.635Z,19.27
2023-10-10T12:18:51.771Z,24.80
2023-10-10T12:21:22.601Z,17.55
2023-10-10T12:24:02.595Z,16.17
2023-10-10T12:26:37.284Z,17.98
2023-10-10T12:29:03.953Z,17.90
2023-10-10T12:31:34.763Z,17.33
2023-10-10T12:34:01.453Z,18.05
2023-10-10T12:36:31.443Z,20.77
2023-10-10T12:39:05.810Z,20.27
2023-10-10T12:41:47.194Z,15.82
2023-10-10T12:44:15.097Z,18.60
2023-10-10T12:46:41.843Z,19.95
2023-10-10T12:49:12.757Z,17.50
2023-10-10T12:51:40.715Z,17.83
2023-10-10T12:54:11.295Z,18.42
2023-10-10T12:56:50.415Z,17.13
2023-10-10T12:59:27.191Z,16.40
2023-10-10T13:02:01.278Z,16.83
2023-10-10T13:04:33.139Z,19.65
2023-10-10T13:07:06.047Z,18.33
2023-10-10T13:09:33.105Z,16.65
2023-10-10T13:12:03.837Z,16.52
2023-10-10T13:14:34.154Z,21.52
2023-10-10T13:17:21.944Z,14.63
2023-10-10T13:19:49.971Z,19.60
2023-10-10T13:22:22.094Z,15.90
2023-10-10T13:24:50.039Z,19.20
2023-10-10T13:27:18.136Z,18.80
2023-10-10T13:29:44.775Z,16.75
2023-10-10T13:32:11.664Z,16.77
2023-10-10T13:34:38.913Z,18.55
2023-10-10T13:37:08.978Z,20.90
2023-10-10T13:39:49.078Z,17.90
2023-10-10T13:42:16.043Z,17.45
2023-10-10T13:44:43.772Z,17.02
2023-10-10T13:47:11.550Z,16.83
2023-10-10T13:49:45.861Z,17.08
2023-10-10T13:52:13.922Z,16.25
2023-10-10T13:54:40.677Z,17.05
2023-10-10T13:57:08.611Z,19.33
2023-10-10T13:59:35.171Z,16.38
2023-10-10T14:02:05.286Z,18.73
2023-10-10T14:04:47.035Z,16.45
2023-10-10T14:07:15.595Z,14.63
2023-10-10T14:09:56.142Z,18.10
2023-10-10T14:12:33.436Z,18.55
2023-10-10T14:15:00.703Z,21.63
2023-10-10T14:17:27.350Z,17.17
2023-10-10T14:19:53.955Z,16.02
2023-10-10T14:22:25.014Z,20.08
2023-10-10T14:24:53.720Z,18.58
2023-10-10T14:27:21.396Z,16.52
2023-10-10T14:29:49.137Z,18.58
2023-10-10T14:32:30.886Z,19.02
2023-10-10T14:35:01.903Z,18.48
2023-10-10T14:40:00.861Z,18.02
2023-10-10T14:42:29.029Z,16.40
2023-10-10T14:44:55.601Z,20.13
2023-10-10T14:47:22.505Z,19.52
2023-10-10T14:49:51.471Z,17.45
2023-10-10T14:52:19.075Z,20.13
2023-10-10T14:54:50.278Z,19.85
2023-10-10T14:57:25.640Z,16.60
2023-10-10T14:59:56.857Z,18.42
2023-10-10T15:02:27.578Z,20.27
2023-10-10T15:04:55.802Z,15.45
2023-10-10T15:07:22.436Z,20.40
2023-10-10T15:09:49.089Z,19.83
2023-10-10T15:12:15.611Z,17.95
2023-10-10T15:14:44.115Z,17.23
2023-10-10T15:17:11.299Z,17.75
2023-10-10T15:19:37.909Z,16.08
2023-10-10T15:22:04.657Z,15.65
2023-10-10T15:24:34.209Z,20.88
2023-10-10T15:27:01.344Z,20.25
2023-10-10T15:29:28.320Z,23.48
2023-10-10T15:31:57.319Z,18.92
2023-10-10T15:34:24.747Z,17.80
2023-10-10T15:36:51.309Z,19.50
2023-10-10T15:39:18.271Z,18.52
2023-10-10T15:41:46.066Z,20.85
2023-10-10T15:44:14.021Z,20.35
2023-10-10T15:46:43.692Z,21.20
2023-10-10T15:49:29.156Z,21.88
2023-10-10T15:52:04.825Z,16.60
2023-10-10T15:54:35.706Z,16.45
2023-10-10T15:57:09.909Z,16.50
2023-10-10T15:59:42.992Z,18.52
2023-10-10T16:02:11.135Z,20.23
2023-10-10T16:04:43.517Z,17.67
2023-10-10T16:07:11.934Z,17.35
2023-10-10T16:09:38.503Z,17.15
2023-10-10T16:12:08.982Z,20.40
2023-10-10T16:14:38.228Z,18.55
2023-10-10T16:17:05.186Z,20.42
2023-10-10T16:19:33.706Z,21.58
2023-10-10T16:22:02.423Z,18.70
2023-10-10T16:24:29.443Z,17.85
2023-10-10T16:27:00.532Z,20.98
2023-10-10T16:29:34.416Z,21.85
2023-10-10T16:32:10.088Z,17.55
2023-10-10T16:34:41.461Z,22.50
2023-10-10T16:37:10.581Z,28.73
2023-10-10T16:39:39.561Z,20.15
2023-10-10T16:42:06.185Z,25.15
2023-10-10T16:44:32.913Z,23.77
2023-10-10T16:47:02.303Z,25.70
2023-10-10T16:49:29.290Z,28.77
2023-10-10T16:51:55.833Z,28.08
2023-10-10T16:54:22.637Z,23.80
2023-10-10T16:56:49.169Z,30.67
2023-10-10T16:59:16.337Z,28.92
2023-10-10T17:01:46.015Z,34.05
2023-10-10T17:04:12.824Z,30.92
2023-10-10T17:06:39.493Z,32.05
2023-10-10T17:09:06.235Z,33.97
2023-10-10T17:11:33.105Z,29.90
2023-10-10T17:14:01.058Z,29.30
2023-10-10T17:16:30.799Z,30.15
2023-10-10T17:19:14.308Z,29.25
2023-10-10T17:21:47.468Z,26.70
2023-10-10T17:24:16.924Z,29.80
2023-10-10T17:26:45.007Z,23.38
2023-10-10T17:29:14.863Z,31.15
2023-10-10T17:31:41.571Z,29.67
2023-10-10T17:34:08.256Z,24.67
2023-10-10T17:36:38.190Z,23.42
2023-10-10T17:39:05.703Z,30.77
2023-10-10T17:41:36.067Z,26.02
2023-10-10T17:44:10.253Z,25.50
2023-10-10T17:46:37.344Z,24.48
2023-10-10T17:49:05.913Z,27.83
2023-10-10T17:51:36.180Z,31.75
2023-10-10T17:54:03.683Z,32.50
2023-10-10T17:58:57.145Z,40.45
2023-10-10T18:01:23.766Z,38.65
2023-10-10T18:03:55.044Z,43.22
2023-10-10T18:06:27.479Z,38.72
2023-10-10T18:09:01.897Z,34.53
2023-10-10T18:11:33.284Z,27.38
2023-10-10T18:14:00.048Z,30.30
2023-10-10T18:16:26.735Z,29.98
2023-10-10T18:18:53.978Z,25.15
2023-10-10T18:21:23.578Z,25.98
2023-10-10T18:23:50.306Z,28.27
2023-10-10T18:26:19.346Z,27.85
2023-10-10T18:28:45.923Z,28.83
2023-10-10T18:31:19.953Z,32.28
2023-10-10T18:33:46.703Z,34.30
2023-10-10T18:36:13.556Z,36.70
2023-10-10T18:38:40.227Z,34.80
2023-10-10T18:41:07.217Z,31.13
2023-10-10T18:43:33.908Z,30.02
2023-10-10T18:46:01.914Z,23.33
2023-10-10T18:48:29.148Z,25.25
2023-10-10T18:50:56.037Z,27.45
2023-10-10T18:53:26.538Z,27.52
2023-10-10T18:55:55.387Z,25.40
2023-10-10T18:58:27.171Z,27.30
2023-10-10T19:00:56.254Z,25.30
2023-10-10T19:03:23.685Z,26.15
2023-10-10T19:05:53.847Z,26.67
2023-10-10T19:08:21.619Z,24.10
2023-10-10T19:13:20.943Z,27.05
2023-10-10T19:15:50.266Z,27.10
2023-10-10T19:18:17.274Z,20.80
2023-10-10T19:20:47.830Z,23.02
2023-10-10T19:23:16.115Z,20.25
2023-10-10T19:25:49.051Z,25.95
2023-10-10T19:28:17.328Z,23.90
2023-10-10T19:30:45.296Z,22.90
2023-10-10T19:33:16.371Z,21.17
2023-10-10T19:35:46.895Z,20.30
2023-10-10T19:38:13.780Z,22.55
2023-10-10T19:40:44.767Z,21.25
2023-10-10T19:43:14.035Z,19.67
2023-10-10T19:45:41.319Z,16.85
2023-10-10T19:48:08.503Z,18.52
2023-10-10T19:50:44.207Z,21.92
2023-10-10T19:53:14.146Z,17.70
2023-10-10T19:55:45.329Z,21.55
2023-10-10T19:58:13.130Z,23.73
2023-10-10T20:00:42.865Z,18.95
2023-10-10T20:03:10.945Z,18.98
2023-10-10T20:05:37.902Z,20.25
2023-10-10T20:08:08.798Z,20.38
2023-10-10T20:10:35.405Z,19.35
2023-10-10T20:13:06.590Z,23.40
2023-10-10T20:15:38.334Z,18.30
2023-10-10T20:18:06.601Z,23.17
2023-10-10T20:20:33.870Z,23.23
2023-10-10T20:23:03.406Z,21.05
2023-10-10T20:25:31.608Z,22.20
2023-10-10T20:28:00.945Z,21.75
2023-10-10T20:30:31.570Z,23.10
2023-10-10T20:33:01.922Z,20.25
2023-10-10T20:35:33.135Z,22.33
2023-10-10T20:38:07.175Z,23.40
2023-10-10T20:40:36.221Z,21.95
2023-10-10T20:43:08.518Z,22.90
2023-10-10T20:45:37.618Z,18.88
2023-10-10T20:48:17.071Z,19.92
2023-10-10T20:50:45.072Z,19.80
2023-10-10T20:53:13.176Z,17.52
2023-10-10T20:55:47.190Z,19.83
2023-10-10T21:00:41.660Z,20.50
2023-10-10T21:03:15.474Z,22.90
2023-10-10T21:05:45.522Z,21.95
2023-10-10T21:08:12.345Z,33.22
2023-10-10T21:10:42.009Z,31.15
2023-10-10T21:13:08.771Z,30.02
2023-10-10T21:15:35.351Z,28.58
2023-10-10T21:18:01.969Z,22.90
2023-10-10T21:20:29.293Z,21.30
2023-10-10T21:23:00.655Z,22.05
2023-10-10T21:25:28.079Z,20.20
2023-10-10T21:27:58.454Z,22.50
2023-10-10T21:30:26.919Z,20.17
2023-10-10T21:32:55.487Z,21.65
2023-10-10T21:35:24.320Z,20.20
2023-10-10T21:37:50.959Z,21.20
2023-10-10T21:40:21.385Z,20.75
2023-10-10T21:42:50.035Z,20.80
2023-10-10T21:45:17.804Z,18.27
2023-10-10T21:47:48.507Z,18.30
2023-10-10T21:50:17.049Z,20.15
2023-10-10T21:52:45.408Z,18.67
2023-10-10T21:55:14.619Z,21.85
2023-10-10T21:57:41.708Z,21.92
2023-10-10T22:00:20.917Z,19.75
2023-10-10T22:02:50.557Z,18.85
2023-10-10T22:05:20.100Z,18.30
2023-10-10T22:07:48.278Z,19.55
2023-10-10T22:10:16.885Z,17.65
2023-10-10T22:12:44.649Z,16.17
2023-10-10T22:15:12.279Z,23.10
2023-10-10T22:17:42.882Z,21.58
2023-10-10T22:20:12.099Z,19.90
2023-10-10T22:22:41.891Z,19.67
2023-10-10T22:25:18.945Z,21.23
2023-10-10T22:27:47.146Z,20.50
2023-10-10T22:30:15.801Z,22.00
2023-10-10T22:32:46.101Z,16.48
2023-10-10T22:35:14.311Z,20.73
2023-10-10T22:37:41.489Z,21.27
2023-10-10T22:40:12.892Z,20.92
2023-10-10T22:42:39.731Z,20.42
2023-10-10T22:45:11.096Z,15.70
2023-10-10T22:47:38.842Z,18.95
2023-10-10T22:52:38.178Z,17.75
2023-10-10T22:55:08.034Z,18.52
2023-10-10T22:57:38.204Z,18.27
2023-10-10T23:00:14.359Z,21.05
2023-10-10T23:02:49.443Z,16.20
2023-10-10T23:05:16.150Z,18.30
2023-10-10T23:07:43.090Z,20.17
2023-10-10T23:10:17.430Z,18.55
2023-10-10T23:12:44.086Z,19.25
2023-10-10T23:15:12.874Z,19.10
2023-10-10T23:17:41.191Z,17.40
2023-10-10T23:20:13.668Z,21.92
2023-10-10T23:22:41.663Z,19.95
2023-10-10T23:25:09.355Z,18.83
2023-10-10T23:30:02.769Z,21.10
2023-10-10T23:32:29.523Z,20.83
2023-10-10T23:34:57.006Z,15.95
2023-10-10T23:37:24.665Z,19.00
2023-10-10T23:42:25.006Z,19.77
2023-10-10T23:44:51.602Z,17.58
2023-10-10T23:47:20.718Z,18.30
2023-10-10T23:49:48.224Z,19.38
2023-10-10T23:52:17.289Z,19.33
2023-10-10T23:54:46.644Z,17.88
2023-10-10T23:57:15.987Z,20.38
2023-10-10T23:59:46.479Z,17.42
